Back to Top

Language: 

My Weather Underground Personal Weather Station Historical Data with Graphs...

Delerius Weather Station Historical Data
Daily Summary for April 5, 2017 Units:  Metric    English   Both
« Previous Day
Next Day »
Daily Weekly Monthly Yearly Custom
  High: Low: Average:
Temperature: 13.7 °C 5.8 °C 9.4 °C
Dew Point: 6.4 °C 3.3 °C 4.9 °C
Humidity: 85 % 59 % 74 %
Wind Speed: 24.1 km/h 0 km/h 13 km/h
Wind Gust: 43.5 km/h - -
Wind:- - WNW
Pressure: 1031.7 hPa 1028.7 hPa -
Precipitation: 0 mm    
Historical Graphs
 
 
Tabular Data for April 5, 2017
Time Temperature Dew Point Pressure Wind Wind Speed Wind Gust Humidity Rainfall Rate (Hourly) solar Conditions
00:03 6.7 °C 3.5 °C 1030 hPa WNW 1.6 km/h 8 km/h 80 % 0 mm 0 W/m2
00:08 6.7 °C 3.5 °C 1030 hPa WNW 3.2 km/h 9.7 km/h 80 % 0 mm 0 W/m2
00:12 6.6 °C 3.6 °C 1030 hPa WNW 4.8 km/h 11.3 km/h 81 % 0 mm 0 W/m2
00:17 6.6 °C 3.6 °C 1030 hPa WNW 4.8 km/h 14.5 km/h 81 % 0 mm 0 W/m2
00:23 6.6 °C 3.6 °C 1030 hPa WNW 6.4 km/h 19.3 km/h 81 % 0 mm 0 W/m2
00:28 6.6 °C 3.6 °C 1030 hPa WNW 8 km/h 19.3 km/h 81 % 0 mm 0 W/m2
00:33 6.6 °C 3.6 °C 1030 hPa WNW 9.7 km/h 17.7 km/h 81 % 0 mm 0 W/m2
00:38 6.7 °C 3.7 °C 1030 hPa WNW 9.7 km/h 22.5 km/h 81 % 0 mm 0 W/m2
00:43 6.8 °C 3.8 °C 1029.7 hPa WNW 12.9 km/h 22.5 km/h 81 % 0 mm 0 W/m2
00:48 6.8 °C 3.6 °C 1029.7 hPa WNW 14.5 km/h 29 km/h 80 % 0 mm 0 W/m2
00:53 6.9 °C 3.7 °C 1029.7 hPa WNW 14.5 km/h 29 km/h 80 % 0 mm 0 W/m2
00:58 6.9 °C 3.7 °C 1029.7 hPa WNW 12.9 km/h 25.7 km/h 80 % 0 mm 0 W/m2
01:03 6.9 °C 3.7 °C 1029.7 hPa WNW 11.3 km/h 25.7 km/h 80 % 0 mm 0 W/m2
01:08 6.8 °C 3.8 °C 1029.7 hPa WNW 11.3 km/h 20.9 km/h 81 % 0 mm 0 W/m2
01:13 6.8 °C 3.8 °C 1029.7 hPa WNW 11.3 km/h 20.9 km/h 81 % 0 mm 0 W/m2
01:18 6.8 °C 3.8 °C 1029.7 hPa WNW 9.7 km/h 17.7 km/h 81 % 0 mm 0 W/m2
01:23 6.7 °C 3.7 °C 1029.7 hPa WNW 11.3 km/h 17.7 km/h 81 % 0 mm 0 W/m2
01:28 6.7 °C 3.7 °C 1029.7 hPa WNW 11.3 km/h 17.7 km/h 81 % 0 mm 0 W/m2
01:33 6.7 °C 3.7 °C 1029.7 hPa WNW 8 km/h 17.7 km/h 81 % 0 mm 0 W/m2
01:38 6.6 °C 3.6 °C 1029.7 hPa WNW 4.8 km/h 12.9 km/h 81 % 0 mm 0 W/m2
01:43 6.5 °C 3.7 °C 1029.3 hPa West 6.4 km/h 14.5 km/h 82 % 0 mm 0 W/m2
01:48 6.4 °C 3.6 °C 1029.7 hPa WNW 8 km/h 16.1 km/h 82 % 0 mm 0 W/m2
01:53 6.4 °C 3.7 °C 1029.7 hPa WNW 9.7 km/h 16.1 km/h 83 % 0 mm 0 W/m2
01:58 6.3 °C 3.6 °C 1029.3 hPa WNW 8 km/h 16.1 km/h 83 % 0 mm 0 W/m2
02:03 6.3 °C 3.6 °C 1029.3 hPa West 6.4 km/h 12.9 km/h 83 % 0 mm 0 W/m2
02:08 6.3 °C 3.6 °C 1029.3 hPa West 6.4 km/h 12.9 km/h 83 % 0 mm 0 W/m2
02:13 6.3 °C 3.6 °C 1029.3 hPa WNW 4.8 km/h 11.3 km/h 83 % 0 mm 0 W/m2
02:18 6.2 °C 3.5 °C 1029.3 hPa West 3.2 km/h 11.3 km/h 83 % 0 mm 0 W/m2
02:23 6.1 °C 3.4 °C 1029.3 hPa WNW 4.8 km/h 16.1 km/h 83 % 0 mm 0 W/m2
02:28 6 °C 3.5 °C 1029.3 hPa WNW 6.4 km/h 16.1 km/h 84 % 0 mm 0 W/m2
02:33 5.9 °C 3.4 °C 1029.3 hPa WNW 4.8 km/h 9.7 km/h 84 % 0 mm 0 W/m2
02:38 5.9 °C 3.4 °C 1029.3 hPa WNW 1.6 km/h 8 km/h 84 % 0 mm 0 W/m2
02:43 5.8 °C 3.3 °C 1029.3 hPa WNW 1.6 km/h 6.4 km/h 84 % 0 mm 0 W/m2
02:48 5.8 °C 3.3 °C 1029.3 hPa WNW 3.2 km/h 12.9 km/h 84 % 0 mm 0 W/m2
02:53 5.9 °C 3.4 °C 1029.3 hPa WNW 9.7 km/h 20.9 km/h 84 % 0 mm 0 W/m2
02:58 6.1 °C 3.4 °C 1029.3 hPa WNW 11.3 km/h 20.9 km/h 83 % 0 mm 0 W/m2
03:03 6.2 °C 3.5 °C 1029 hPa WNW 8 km/h 17.7 km/h 83 % 0 mm 0 W/m2
03:08 6.2 °C 3.3 °C 1029.3 hPa WNW 6.4 km/h 17.7 km/h 82 % 0 mm 0 W/m2
03:13 6.2 °C 3.3 °C 1029 hPa WNW 4.8 km/h 16.1 km/h 82 % 0 mm 0 W/m2
03:18 6.2 °C 3.5 °C 1029.3 hPa WNW 3.2 km/h 16.1 km/h 83 % 0 mm 0 W/m2
03:23 6.2 °C 3.5 °C 1029.3 hPa NW 1.6 km/h 11.3 km/h 83 % 0 mm 0 W/m2
03:28 6.2 °C 3.5 °C 1029.3 hPa NW 1.6 km/h 11.3 km/h 83 % 0 mm 0 W/m2
03:33 6.2 °C 3.5 °C 1029.3 hPa WNW 1.6 km/h 8 km/h 83 % 0 mm 0 W/m2
03:38 6.1 °C 3.3 °C 1029 hPa WNW 1.6 km/h 8 km/h 82 % 0 mm 0 W/m2
03:43 6.1 °C 3.4 °C 1029.3 hPa WNW 1.6 km/h 11.3 km/h 83 % 0 mm 0 W/m2
03:48 6.1 °C 3.4 °C 1029.3 hPa WNW 3.2 km/h 14.5 km/h 83 % 0 mm 0 W/m2
03:53 6.2 °C 3.5 °C 1029.3 hPa WNW 3.2 km/h 14.5 km/h 83 % 0 mm 0 W/m2
03:58 6.2 °C 3.5 °C 1029.3 hPa WNW 1.6 km/h 11.3 km/h 83 % 0 mm 0 W/m2
04:03 6.1 °C 3.3 °C 1029.3 hPa NW 1.6 km/h 11.3 km/h 82 % 0 mm 0 W/m2
04:08 6.1 °C 3.4 °C 1029.3 hPa Calm   11.3 km/h 83 % 0 mm 0 W/m2
04:13 6 °C 3.3 °C 1029.3 hPa Calm   1.6 km/h 83 % 0 mm 0 W/m2
04:18 6 °C 3.3 °C 1029.3 hPa Calm   1.6 km/h 83 % 0 mm 0 W/m2
04:23 6.1 °C 3.6 °C 1029 hPa WNW 3.2 km/h 16.1 km/h 84 % 0 mm 0 W/m2
04:28 6.2 °C 3.7 °C 1029 hPa WNW 8 km/h 19.3 km/h 84 % 0 mm 0 W/m2
04:33 6.3 °C 3.8 °C 1029 hPa WNW 8 km/h 19.3 km/h 84 % 0 mm 0 W/m2
04:38 6.4 °C 3.9 °C 1029 hPa WNW 8 km/h 19.3 km/h 84 % 0 mm 0 W/m2
04:43 6.6 °C 3.9 °C 1028.7 hPa WNW 6.4 km/h 17.7 km/h 83 % 0 mm 0 W/m2
04:48 6.6 °C 3.9 °C 1028.7 hPa WNW 3.2 km/h 17.7 km/h 83 % 0 mm 0 W/m2
04:54 6.6 °C 3.9 °C 1029 hPa Calm   8 km/h 83 % 0 mm 0 W/m2
04:59 6.6 °C 3.9 °C 1029 hPa NW 1.6 km/h 9.7 km/h 83 % 0 mm 0 W/m2
05:04 6.6 °C 3.9 °C 1029 hPa NW 3.2 km/h 22.5 km/h 83 % 0 mm 0 W/m2
05:09 6.7 °C 4 °C 1029 hPa NW 3.2 km/h 22.5 km/h 83 % 0 mm 0 W/m2
05:14 6.7 °C 4 °C 1029.3 hPa NNW 1.6 km/h 12.9 km/h 83 % 0 mm 0 W/m2
05:19 6.7 °C 4 °C 1029.3 hPa NW 4.8 km/h 19.3 km/h 83 % 0 mm 0 W/m2
05:24 6.7 °C 3.8 °C 1029 hPa WNW 8 km/h 19.3 km/h 82 % 0 mm 0 W/m2
05:29 6.7 °C 3.8 °C 1029 hPa WNW 8 km/h 17.7 km/h 82 % 0 mm 0 W/m2
05:34 6.7 °C 4 °C 1029 hPa NW 4.8 km/h 17.7 km/h 83 % 0 mm 0 W/m2
05:39 6.6 °C 3.9 °C 1029 hPa NW 3.2 km/h 17.7 km/h 83 % 0 mm 0 W/m2
05:44 6.6 °C 3.7 °C 1028.7 hPa NW 6.4 km/h 17.7 km/h 82 % 0 mm 0 W/m2
05:49 6.7 °C 3.8 °C 1028.7 hPa WNW 9.7 km/h 19.3 km/h 82 % 0 mm 0 W/m2
05:54 6.8 °C 3.8 °C 1029 hPa WNW 12.9 km/h 29 km/h 81 % 0 mm 0 W/m2
05:59 6.9 °C 3.9 °C 1029 hPa WNW 14.5 km/h 29 km/h 81 % 0 mm 0 W/m2
06:04 7 °C 3.9 °C 1029 hPa WNW 14.5 km/h 29 km/h 81 % 0 mm 0 W/m2
06:09 7.1 °C 3.9 °C 1029 hPa WNW 12.9 km/h 24.1 km/h 80 % 0 mm 0 W/m2
06:14 7.1 °C 3.9 °C 1029 hPa WNW 12.9 km/h 24.1 km/h 80 % 0 mm 0 W/m2
06:19 7.1 °C 3.9 °C 1029 hPa WNW 16.1 km/h 33.8 km/h 80 % 0 mm 0 W/m2
06:20 7.1 °C 3.9 °C 1029.3 hPa WNW 16.1 km/h 33.8 km/h 80 % 0 mm 0 W/m2
06:25 7.2 °C 4 °C 1029.3 hPa NW 17.7 km/h 33.8 km/h 80 % 0 mm 0 W/m2
06:30 7.2 °C 4 °C 1029.3 hPa NW 14.5 km/h 32.2 km/h 80 % 0 mm 0 W/m2
06:35 7.1 °C 3.9 °C 1029.3 hPa NW 11.3 km/h 20.9 km/h 80 % 0 mm 5 W/m2
06:40 7.1 °C 3.9 °C 1029.3 hPa NW 11.3 km/h 25.7 km/h 80 % 0 mm 9 W/m2
06:45 7.2 °C 4 °C 1029.7 hPa NW 12.9 km/h 25.7 km/h 80 % 0 mm 12 W/m2
06:50 7.2 °C 4 °C 1029.3 hPa NW 9.7 km/h 25.7 km/h 80 % 0 mm 18 W/m2
06:55 7.3 °C 3.9 °C 1029.7 hPa NNW 4.8 km/h 19.3 km/h 79 % 0 mm 23 W/m2
07:00 7.3 °C 3.9 °C 1030 hPa NNW 6.4 km/h 24.1 km/h 79 % 0 mm 28 W/m2
07:05 7.3 °C 3.9 °C 1029.7 hPa NW 11.3 km/h 30.6 km/h 79 % 0 mm 33 W/m2
07:10 7.4 °C 4 °C 1030 hPa NW 14.5 km/h 30.6 km/h 79 % 0 mm 40 W/m2
07:15 7.4 °C 4 °C 1030 hPa NW 14.5 km/h 29 km/h 79 % 0 mm 46 W/m2
07:20 7.5 °C 4.1 °C 1030 hPa NW 12.9 km/h 22.5 km/h 79 % 0 mm 49 W/m2
07:25 7.5 °C 4.1 °C 1030 hPa WNW 14.5 km/h 33.8 km/h 79 % 0 mm 53 W/m2
07:30 7.6 °C 4.2 °C 1030 hPa WNW 16.1 km/h 33.8 km/h 79 % 0 mm 54 W/m2
07:35 7.6 °C 4.2 °C 1029.7 hPa WNW 14.5 km/h 25.7 km/h 79 % 0 mm 58 W/m2
07:40 7.6 °C 4.2 °C 1030 hPa WNW 12.9 km/h 29 km/h 79 % 0 mm 62 W/m2
07:45 7.7 °C 4.3 °C 1030 hPa NW 11.3 km/h 29 km/h 79 % 0 mm 69 W/m2
07:50 7.8 °C 4.4 °C 1030 hPa NW 9.7 km/h 20.9 km/h 79 % 0 mm 72 W/m2
07:56 7.9 °C 4.5 °C 1030 hPa WNW 9.7 km/h 20.9 km/h 79 % 0 mm 83 W/m2
08:01 8 °C 4.4 °C 1030.4 hPa WNW 11.3 km/h 24.1 km/h 78 % 0 mm 100 W/m2
08:06 8.1 °C 4.5 °C 1030.4 hPa WNW 12.9 km/h 25.7 km/h 78 % 0 mm 193 W/m2
08:11 8.3 °C 4.7 °C 1030.4 hPa WNW 12.9 km/h 25.7 km/h 78 % 0 mm 220 W/m2
08:16 8.6 °C 5 °C 1030.4 hPa WNW 12.9 km/h 24.1 km/h 78 % 0 mm 207 W/m2
08:21 8.8 °C 5 °C 1030.4 hPa WNW 12.9 km/h 24.1 km/h 77 % 0 mm 237 W/m2
08:26 9 °C 5.2 °C 1030.4 hPa WNW 12.9 km/h 25.7 km/h 77 % 0 mm 250 W/m2
08:31 9.2 °C 5.2 °C 1030.4 hPa WNW 16.1 km/h 37 km/h 76 % 0 mm 234 W/m2
08:36 9.2 °C 5.2 °C 1030.4 hPa WNW 12.9 km/h 37 km/h 76 % 0 mm 91 W/m2
08:41 9.3 °C 5.1 °C 1030.4 hPa WNW 11.3 km/h 25.7 km/h 75 % 0 mm 271 W/m2
08:46 9.4 °C 5.2 °C 1030.4 hPa WNW 11.3 km/h 25.7 km/h 75 % 0 mm 123 W/m2
08:51 9.6 °C 5.4 °C 1030.7 hPa WNW 11.3 km/h 25.7 km/h 75 % 0 mm 299 W/m2
08:56 9.7 °C 5.3 °C 1030.7 hPa WNW 12.9 km/h 25.7 km/h 74 % 0 mm 144 W/m2
09:01 9.8 °C 5.4 °C 1030.4 hPa WNW 11.3 km/h 22.5 km/h 74 % 0 mm 125 W/m2
09:06 9.8 °C 5.2 °C 1030.4 hPa NW 12.9 km/h 32.2 km/h 73 % 0 mm 95 W/m2
09:11 9.6 °C 5.2 °C 1030.4 hPa WNW 14.5 km/h 32.2 km/h 74 % 0 mm 95 W/m2
09:16 9.4 °C 5 °C 1030.4 hPa WNW 16.1 km/h 30.6 km/h 74 % 0 mm 135 W/m2
09:21 9.4 °C 5.2 °C 1030.4 hPa WNW 14.5 km/h 30.6 km/h 75 % 0 mm 253 W/m2
09:26 9.5 °C 5.3 °C 1030.4 hPa NW 11.3 km/h 30.6 km/h 75 % 0 mm 239 W/m2
09:31 9.6 °C 5.4 °C 1030.7 hPa WNW 12.9 km/h 30.6 km/h 75 % 0 mm 216 W/m2
09:36 9.7 °C 5.3 °C 1030.7 hPa WNW 16.1 km/h 33.8 km/h 74 % 0 mm 181 W/m2
09:41 9.9 °C 5.5 °C 1030.7 hPa WNW 17.7 km/h 33.8 km/h 74 % 0 mm 533 W/m2
09:46 10.2 °C 5.8 °C 1030.7 hPa WNW 17.7 km/h 33.8 km/h 74 % 0 mm 566 W/m2
09:51 10.5 °C 5.7 °C 1030.7 hPa WNW 19.3 km/h 33.8 km/h 72 % 0 mm 207 W/m2
09:56 10.6 °C 5.8 °C 1031 hPa WNW 17.7 km/h 32.2 km/h 72 % 0 mm 209 W/m2
10:01 10.4 °C 5.4 °C 1030.7 hPa WNW 16.1 km/h 32.2 km/h 71 % 0 mm 102 W/m2
10:06 10.2 °C 5.2 °C 1030.7 hPa WNW 19.3 km/h 35.4 km/h 71 % 0 mm 130 W/m2
10:12 10 °C 5.2 °C 1030.7 hPa WNW 20.9 km/h 37 km/h 72 % 0 mm 151 W/m2
10:17 10.2 °C 5.4 °C 1030.7 hPa WNW 19.3 km/h 37 km/h 72 % 0 mm 603 W/m2
10:20 10.5 °C 5.4 °C 1031 hPa WNW 19.3 km/h 35.4 km/h 71 % 0 mm 654 W/m2
10:25 10.9 °C 5.4 °C 1030.7 hPa WNW 17.7 km/h 33.8 km/h 69 % 0 mm 738 W/m2
10:30 11.3 °C 5.6 °C 1030.7 hPa WNW 16.1 km/h 32.2 km/h 68 % 0 mm 308 W/m2
10:35 11.5 °C 5.6 °C 1030.7 hPa WNW 12.9 km/h 24.1 km/h 67 % 0 mm 253 W/m2
10:40 11.6 °C 5.7 °C 1030.7 hPa WNW 11.3 km/h 24.1 km/h 67 % 0 mm 276 W/m2
10:45 11.6 °C 5.7 °C 1031 hPa WNW 11.3 km/h 22.5 km/h 67 % 0 mm 246 W/m2
10:50 11.5 °C 5.4 °C 1031 hPa NW 14.5 km/h 29 km/h 66 % 0 mm 262 W/m2
10:55 11.5 °C 5.4 °C 1031 hPa WNW 14.5 km/h 29 km/h 66 % 0 mm 207 W/m2
11:00 11.4 °C 5.3 °C 1031 hPa WNW 14.5 km/h 30.6 km/h 66 % 0 mm 216 W/m2
11:05 11.4 °C 5.5 °C 1031 hPa WNW 14.5 km/h 30.6 km/h 67 % 0 mm 213 W/m2
11:10 11.3 °C 5.4 °C 1031 hPa WNW 14.5 km/h 24.1 km/h 67 % 0 mm 287 W/m2
11:15 11.3 °C 5.6 °C 1031 hPa NW 14.5 km/h 25.7 km/h 68 % 0 mm 329 W/m2
11:20 11.5 °C 5.8 °C 1031 hPa WNW 14.5 km/h 25.7 km/h 68 % 0 mm 742 W/m2
11:25 11.8 °C 5.9 °C 1031 hPa WNW 16.1 km/h 35.4 km/h 67 % 0 mm 805 W/m2
11:30 12.1 °C 5.7 °C 1031 hPa WNW 19.3 km/h 35.4 km/h 65 % 0 mm 904 W/m2
11:35 12.4 °C 6 °C 1031 hPa NW 17.7 km/h 33.8 km/h 65 % 0 mm 904 W/m2
11:40 12.7 °C 5.8 °C 1030.7 hPa WNW 20.9 km/h 37 km/h 63 % 0 mm 759 W/m2
11:45 12.8 °C 6.2 °C 1030.7 hPa WNW 22.5 km/h 37 km/h 64 % 0 mm 872 W/m2
11:50 12.9 °C 6.2 °C 1030.7 hPa WNW 19.3 km/h 38.6 km/h 64 % 0 mm 323 W/m2
11:55 12.6 °C 5.7 °C 1031 hPa WNW 20.9 km/h 38.6 km/h 63 % 0 mm 882 W/m2
12:00 12.4 °C 5.8 °C 1030.7 hPa WNW 20.9 km/h 38.6 km/h 64 % 0 mm 285 W/m2
12:06 12.3 °C 5.7 °C 1031 hPa WNW 20.9 km/h 35.4 km/h 64 % 0 mm 243 W/m2
12:11 12.3 °C 5.7 °C 1031 hPa WNW 19.3 km/h 33.8 km/h 64 % 0 mm 325 W/m2
12:16 12.2 °C 5.6 °C 1031 hPa NW 16.1 km/h 29 km/h 64 % 0 mm 285 W/m2
12:21 12.1 °C 5.5 °C 1031 hPa NW 16.1 km/h 32.2 km/h 64 % 0 mm 274 W/m2
12:26 12.2 °C 5.6 °C 1031 hPa NW 14.5 km/h 32.2 km/h 64 % 0 mm 798 W/m2
12:31 12.6 °C 5.7 °C 1031 hPa NW 17.7 km/h 37 km/h 63 % 0 mm 798 W/m2
12:36 12.7 °C 5.6 °C 1031 hPa NW 17.7 km/h 37 km/h 62 % 0 mm 348 W/m2
12:41 12.7 °C 5.8 °C 1030.7 hPa NW 17.7 km/h 35.4 km/h 63 % 0 mm 348 W/m2
12:46 12.8 °C 6.2 °C 1030.7 hPa WNW 20.9 km/h 35.4 km/h 64 % 0 mm 951 W/m2
12:51 13 °C 6.1 °C 1030.7 hPa WNW 20.9 km/h 33.8 km/h 63 % 0 mm 199 W/m2
12:56 12.9 °C 5.8 °C 1030.7 hPa WNW 22.5 km/h 33.8 km/h 62 % 0 mm 830 W/m2
13:01 12.7 °C 5.6 °C 1030.7 hPa WNW 22.5 km/h 37 km/h 62 % 0 mm 258 W/m2
13:06 12.4 °C 5.6 °C 1030.7 hPa WNW 20.9 km/h 37 km/h 63 % 0 mm 318 W/m2
13:11 12.3 °C 5.7 °C 1030.7 hPa WNW 19.3 km/h 37 km/h 64 % 0 mm 279 W/m2
13:16 12.3 °C 5.7 °C 1030.7 hPa WNW 19.3 km/h 37 km/h 64 % 0 mm 517 W/m2
13:21 12.7 °C 6.1 °C 1030.4 hPa WNW 20.9 km/h 35.4 km/h 64 % 0 mm 877 W/m2
13:26 12.8 °C 5.9 °C 1030.4 hPa WNW 22.5 km/h 37 km/h 63 % 0 mm 287 W/m2
13:31 12.7 °C 5.8 °C 1030.4 hPa WNW 22.5 km/h 37 km/h 63 % 0 mm 221 W/m2
13:33 12.6 °C 5.9 °C 1030.4 hPa WNW 20.9 km/h 37 km/h 64 % 0 mm 243 W/m2
13:38 12.5 °C 5.7 °C 1030.4 hPa WNW 17.7 km/h 35.4 km/h 63 % 0 mm 274 W/m2
13:43 12.4 °C 5.8 °C 1030.4 hPa WNW 17.7 km/h 30.6 km/h 64 % 0 mm 244 W/m2
13:48 12.3 °C 5.9 °C 1030.4 hPa WNW 16.1 km/h 30.6 km/h 65 % 0 mm 234 W/m2
13:53 12.3 °C 6.1 °C 1030.4 hPa WNW 16.1 km/h 33.8 km/h 66 % 0 mm 357 W/m2
13:58 12.4 °C 6 °C 1030.4 hPa WNW 17.7 km/h 33.8 km/h 65 % 0 mm 276 W/m2
14:03 12.4 °C 6 °C 1030 hPa WNW 17.7 km/h 35.4 km/h 65 % 0 mm 450 W/m2
14:08 12.6 °C 5.9 °C 1030 hPa WNW 20.9 km/h 35.4 km/h 64 % 0 mm 807 W/m2
14:13 13 °C 6.1 °C 1030 hPa West 22.5 km/h 33.8 km/h 63 % 0 mm 840 W/m2
14:18 13.2 °C 6.1 °C 1030.4 hPa West 22.5 km/h 35.4 km/h 62 % 0 mm 766 W/m2
14:23 13.4 °C 6 °C 1030 hPa WNW 22.5 km/h 38.6 km/h 61 % 0 mm 659 W/m2
14:28 13.6 °C 6.2 °C 1030 hPa WNW 22.5 km/h 38.6 km/h 61 % 0 mm 728 W/m2
14:33 13.7 °C 6.3 °C 1030 hPa WNW 20.9 km/h 38.6 km/h 61 % 0 mm 847 W/m2
14:38 13.6 °C 6 °C 1030 hPa WNW 20.9 km/h 38.6 km/h 60 % 0 mm 840 W/m2
14:43 13.7 °C 6.1 °C 1030 hPa WNW 19.3 km/h 38.6 km/h 60 % 0 mm 204 W/m2
14:48 13.4 °C 5.8 °C 1030 hPa WNW 17.7 km/h 33.8 km/h 60 % 0 mm 332 W/m2
14:53 13.3 °C 6.2 °C 1030 hPa WNW 16.1 km/h 30.6 km/h 62 % 0 mm 429 W/m2
14:58 13.1 °C 5.7 °C 1030 hPa WNW 17.7 km/h 35.4 km/h 61 % 0 mm 272 W/m2
15:03 13 °C 5.9 °C 1030 hPa West 22.5 km/h 37 km/h 62 % 0 mm 775 W/m2
15:08 13.3 °C 6.2 °C 1030 hPa WNW 20.9 km/h 37 km/h 62 % 0 mm 680 W/m2
15:13 13.5 °C 6.1 °C 1030 hPa WNW 20.9 km/h 37 km/h 61 % 0 mm 666 W/m2
15:18 13.6 °C 6.2 °C 1030 hPa WNW 22.5 km/h 35.4 km/h 61 % 0 mm 490 W/m2
15:23 13.6 °C 6.4 °C 1030 hPa WNW 17.7 km/h 33.8 km/h 62 % 0 mm 571 W/m2
15:28 13.7 °C 6.1 °C 1030 hPa WNW 16.1 km/h 29 km/h 60 % 0 mm 628 W/m2
15:33 13.7 °C 5.8 °C 1029.7 hPa WNW 19.3 km/h 33.8 km/h 59 % 0 mm 603 W/m2
15:39 13.6 °C 6 °C 1029.7 hPa WNW 22.5 km/h 38.6 km/h 60 % 0 mm 462 W/m2
15:44 13.6 °C 6 °C 1029.7 hPa WNW 24.1 km/h 38.6 km/h 60 % 0 mm 522 W/m2
15:49 13.5 °C 5.9 °C 1029.7 hPa WNW 22.5 km/h 38.6 km/h 60 % 0 mm 499 W/m2
15:54 13.4 °C 5.8 °C 1029.3 hPa WNW 22.5 km/h 41.8 km/h 60 % 0 mm 450 W/m2
15:59 13.3 °C 5.9 °C 1029.3 hPa WNW 24.1 km/h 41.8 km/h 61 % 0 mm 561 W/m2
16:04 13.3 °C 5.9 °C 1029.7 hPa WNW 24.1 km/h 41.8 km/h 61 % 0 mm 577 W/m2
16:09 13.2 °C 5.6 °C 1029.7 hPa WNW 24.1 km/h 40.2 km/h 60 % 0 mm 174 W/m2
16:14 12.9 °C 5.6 °C 1029.3 hPa WNW 24.1 km/h 40.2 km/h 61 % 0 mm 301 W/m2
16:19 12.8 °C 5.7 °C 1029.7 hPa WNW 22.5 km/h 35.4 km/h 62 % 0 mm 468 W/m2
16:24 12.9 °C 5.8 °C 1029.7 hPa WNW 20.9 km/h 33.8 km/h 62 % 0 mm 480 W/m2
16:29 12.8 °C 5.9 °C 1029.7 hPa WNW 20.9 km/h 33.8 km/h 63 % 0 mm 213 W/m2
16:34 12.4 °C 5.6 °C 1029.7 hPa West 20.9 km/h 33.8 km/h 63 % 0 mm 178 W/m2
16:39 12.3 °C 5.7 °C 1029.7 hPa West 17.7 km/h 32.2 km/h 64 % 0 mm 234 W/m2
16:44 12.1 °C 5.5 °C 1029.7 hPa West 19.3 km/h 37 km/h 64 % 0 mm 281 W/m2
16:49 12.1 °C 5.7 °C 1030 hPa West 20.9 km/h 37 km/h 65 % 0 mm 366 W/m2
16:54 12.2 °C 5.8 °C 1029.7 hPa WNW 19.3 km/h 35.4 km/h 65 % 0 mm 209 W/m2
16:59 12.1 °C 5.9 °C 1029.7 hPa WNW 19.3 km/h 35.4 km/h 66 % 0 mm 171 W/m2
17:04 12 °C 5.8 °C 1029.7 hPa WNW 19.3 km/h 33.8 km/h 66 % 0 mm 181 W/m2
17:09 11.9 °C 5.9 °C 1030 hPa WNW 19.3 km/h 33.8 km/h 67 % 0 mm 185 W/m2
17:14 11.8 °C 5.9 °C 1030 hPa WNW 20.9 km/h 37 km/h 67 % 0 mm 195 W/m2
17:19 11.8 °C 5.9 °C 1030 hPa WNW 19.3 km/h 37 km/h 67 % 0 mm 274 W/m2
17:24 11.9 °C 6.2 °C 1030 hPa WNW 17.7 km/h 35.4 km/h 68 % 0 mm 288 W/m2
17:29 12 °C 6.1 °C 1030 hPa WNW 16.1 km/h 35.4 km/h 67 % 0 mm 327 W/m2
17:34 12.1 °C 6.2 °C 1030 hPa West 16.1 km/h 30.6 km/h 67 % 0 mm 179 W/m2
17:39 12.2 °C 6.2 °C 1030 hPa WNW 16.1 km/h 30.6 km/h 67 % 0 mm 288 W/m2
17:44 12.1 °C 5.9 °C 1030 hPa WNW 19.3 km/h 35.4 km/h 66 % 0 mm 116 W/m2
17:50 11.8 °C 5.9 °C 1029.7 hPa WNW 20.9 km/h 35.4 km/h 67 % 0 mm 109 W/m2
17:55 11.6 °C 5.9 °C 1030 hPa WNW 19.3 km/h 35.4 km/h 68 % 0 mm 97 W/m2
18:00 11.4 °C 5.7 °C 1030 hPa WNW 20.9 km/h 37 km/h 68 % 0 mm 137 W/m2
18:05 11.2 °C 5.7 °C 1030 hPa WNW 22.5 km/h 43.5 km/h 69 % 0 mm 204 W/m2
18:10 11.2 °C 5.9 °C 1030 hPa WNW 19.3 km/h 43.5 km/h 70 % 0 mm 200 W/m2
18:15 11.3 °C 6 °C 1030.4 hPa WNW 19.3 km/h 32.2 km/h 70 % 0 mm 172 W/m2
18:20 11.4 °C 6.1 °C 1030 hPa WNW 17.7 km/h 32.2 km/h 70 % 0 mm 183 W/m2
18:25 11.5 °C 6 °C 1030.4 hPa WNW 14.5 km/h 24.1 km/h 69 % 0 mm 95 W/m2
18:30 11.4 °C 6.1 °C 1030.4 hPa WNW 14.5 km/h 30.6 km/h 70 % 0 mm 79 W/m2
18:35 11.3 °C 6 °C 1030.4 hPa WNW 16.1 km/h 35.4 km/h 70 % 0 mm 84 W/m2
18:39 11.1 °C 5.8 °C 1030.4 hPa WNW 17.7 km/h 37 km/h 70 % 0 mm 93 W/m2
18:44 11.1 °C 5.8 °C 1030.4 hPa WNW 20.9 km/h 37 km/h 70 % 0 mm 72 W/m2
18:49 11 °C 5.9 °C 1030.4 hPa WNW 20.9 km/h 37 km/h 71 % 0 mm 65 W/m2
18:55 10.9 °C 5.8 °C 1030.4 hPa WNW 17.7 km/h 37 km/h 71 % 0 mm 49 W/m2
19:00 10.8 °C 5.7 °C 1030.4 hPa WNW 17.7 km/h 37 km/h 71 % 0 mm 46 W/m2
19:05 10.7 °C 5.8 °C 1030.4 hPa WNW 16.1 km/h 32.2 km/h 72 % 0 mm 46 W/m2
19:10 10.7 °C 5.8 °C 1030.7 hPa WNW 12.9 km/h 32.2 km/h 72 % 0 mm 33 W/m2
19:15 10.6 °C 5.8 °C 1030.4 hPa WNW 12.9 km/h 22.5 km/h 72 % 0 mm 28 W/m2
19:20 10.5 °C 5.7 °C 1030.7 hPa WNW 17.7 km/h 35.4 km/h 72 % 0 mm 25 W/m2
19:25 10.4 °C 5.6 °C 1030.7 hPa WNW 19.3 km/h 35.4 km/h 72 % 0 mm 18 W/m2
19:30 10.3 °C 5.7 °C 1030.7 hPa WNW 14.5 km/h 30.6 km/h 73 % 0 mm 14 W/m2
19:35 10.3 °C 5.7 °C 1030.7 hPa WNW 14.5 km/h 30.6 km/h 73 % 0 mm 9 W/m2
19:40 10.2 °C 5.6 °C 1030.7 hPa WNW 17.7 km/h 33.8 km/h 73 % 0 mm 9 W/m2
19:45 10.1 °C 5.7 °C 1030.7 hPa WNW 17.7 km/h 33.8 km/h 74 % 0 mm 7 W/m2
19:50 10 °C 5.6 °C 1030.7 hPa WNW 16.1 km/h 29 km/h 74 % 0 mm 5 W/m2
19:55 9.9 °C 5.5 °C 1030.7 hPa WNW 16.1 km/h 29 km/h 74 % 0 mm 0 W/m2
20:00 9.8 °C 5.4 °C 1030.7 hPa WNW 16.1 km/h 25.7 km/h 74 % 0 mm 0 W/m2
20:05 9.7 °C 5.5 °C 1030.7 hPa WNW 16.1 km/h 25.7 km/h 75 % 0 mm 0 W/m2
20:10 9.6 °C 5.6 °C 1031 hPa WNW 16.1 km/h 25.7 km/h 76 % 0 mm 0 W/m2
20:15 9.5 °C 5.5 °C 1031 hPa WNW 11.3 km/h 22.5 km/h 76 % 0 mm 0 W/m2
20:20 9.4 °C 5.6 °C 1030.7 hPa WNW 11.3 km/h 29 km/h 77 % 0 mm 0 W/m2
20:25 9.3 °C 5.4 °C 1031 hPa WNW 14.5 km/h 29 km/h 77 % 0 mm 0 W/m2
20:30 9.2 °C 5.6 °C 1031 hPa WNW 12.9 km/h 25.7 km/h 78 % 0 mm 0 W/m2
20:35 9.1 °C 5.4 °C 1031 hPa WNW 11.3 km/h 20.9 km/h 78 % 0 mm 0 W/m2
20:40 9.1 °C 5.4 °C 1031 hPa WNW 12.9 km/h 22.5 km/h 78 % 0 mm 0 W/m2
20:45 8.9 °C 5.3 °C 1031 hPa WNW 12.9 km/h 22.5 km/h 78 % 0 mm 0 W/m2
20:50 8.8 °C 5.3 °C 1031.4 hPa WNW 11.3 km/h 17.7 km/h 79 % 0 mm 0 W/m2
20:55 8.8 °C 5.3 °C 1031.4 hPa West 9.7 km/h 17.7 km/h 79 % 0 mm 0 W/m2
21:00 8.7 °C 5.3 °C 1031 hPa WNW 12.9 km/h 24.1 km/h 79 % 0 mm 0 W/m2
21:05 8.7 °C 5.4 °C 1031 hPa WNW 12.9 km/h 24.1 km/h 80 % 0 mm 0 W/m2
21:10 8.6 °C 5.3 °C 1031.4 hPa WNW 11.3 km/h 19.3 km/h 80 % 0 mm 0 W/m2
21:15 8.5 °C 5.2 °C 1031.7 hPa WNW 9.7 km/h 17.7 km/h 80 % 0 mm 0 W/m2
21:20 8.4 °C 5.2 °C 1031.4 hPa WNW 9.7 km/h 17.7 km/h 80 % 0 mm 0 W/m2
21:21 8.4 °C 5.2 °C 1031.4 hPa WNW 9.7 km/h 17.7 km/h 80 % 0 mm 0 W/m2
21:26 8.3 °C 5.2 °C 1031.4 hPa WNW 9.7 km/h 17.7 km/h 81 % 0 mm 0 W/m2
21:31 8.2 °C 5.1 °C 1031.7 hPa WNW 9.7 km/h 17.7 km/h 81 % 0 mm 0 W/m2
21:37 8.2 °C 5.1 °C 1031.7 hPa WNW 8 km/h 17.7 km/h 81 % 0 mm 0 W/m2
21:42 8.1 °C 5.1 °C 1031.4 hPa WNW 9.7 km/h 19.3 km/h 81 % 0 mm 0 W/m2
21:47 8 °C 5.1 °C 1031.7 hPa NW 9.7 km/h 19.3 km/h 82 % 0 mm 0 W/m2
21:52 8 °C 5.1 °C 1031.7 hPa WNW 8 km/h 19.3 km/h 82 % 0 mm 0 W/m2
21:57 7.9 °C 5 °C 1031.7 hPa WNW 6.4 km/h 19.3 km/h 82 % 0 mm 0 W/m2
22:02 7.9 °C 5 °C 1031.7 hPa NW 6.4 km/h 16.1 km/h 82 % 0 mm 0 W/m2
22:07 7.8 °C 5.1 °C 1031.7 hPa NW 8 km/h 16.1 km/h 83 % 0 mm 0 W/m2
22:12 7.8 °C 5.1 °C 1031.7 hPa WNW 8 km/h 16.1 km/h 83 % 0 mm 0 W/m2
22:17 7.8 °C 5.1 °C 1031.4 hPa WNW 6.4 km/h 16.1 km/h 83 % 0 mm 0 W/m2
22:22 7.7 °C 5 °C 1031.4 hPa WNW 6.4 km/h 14.5 km/h 83 % 0 mm 0 W/m2
22:27 7.7 °C 5 °C 1031.4 hPa WNW 8 km/h 16.1 km/h 83 % 0 mm 0 W/m2
22:32 7.6 °C 4.9 °C 1031.4 hPa WNW 8 km/h 16.1 km/h 83 % 0 mm 0 W/m2
22:37 7.6 °C 4.9 °C 1031.4 hPa WNW 8 km/h 16.1 km/h 83 % 0 mm 0 W/m2
22:42 7.5 °C 4.8 °C 1031.4 hPa NW 6.4 km/h 16.1 km/h 83 % 0 mm 0 W/m2
22:47 7.5 °C 4.9 °C 1031.4 hPa WNW 6.4 km/h 17.7 km/h 84 % 0 mm 0 W/m2
22:52 7.4 °C 4.9 °C 1031.4 hPa WNW 8 km/h 17.7 km/h 84 % 0 mm 0 W/m2
22:57 7.4 °C 4.9 °C 1031.4 hPa WNW 8 km/h 14.5 km/h 84 % 0 mm 0 W/m2
23:02 7.3 °C 4.8 °C 1031.4 hPa WNW 6.4 km/h 12.9 km/h 84 % 0 mm 0 W/m2
23:07 7.3 °C 4.8 °C 1031.7 hPa WNW 4.8 km/h 12.9 km/h 84 % 0 mm 0 W/m2
23:12 7.2 °C 4.7 °C 1031.4 hPa WNW 4.8 km/h 12.9 km/h 84 % 0 mm 0 W/m2
23:17 7.1 °C 4.7 °C 1031.4 hPa WNW 6.4 km/h 12.9 km/h 85 % 0 mm 0 W/m2
23:22 7.1 °C 4.7 °C 1031.7 hPa WNW 6.4 km/h 12.9 km/h 85 % 0 mm 0 W/m2
23:27 7.1 °C 4.7 °C 1031.7 hPa WNW 6.4 km/h 14.5 km/h 85 % 0 mm 0 W/m2
23:32 7.1 °C 4.7 °C 1031.7 hPa NW 8 km/h 16.1 km/h 85 % 0 mm 0 W/m2
23:37 7.1 °C 4.7 °C 1031.7 hPa WNW 6.4 km/h 16.1 km/h 85 % 0 mm 0 W/m2
23:42 7 °C 4.7 °C 1031.7 hPa WNW 3.2 km/h 11.3 km/h 85 % 0 mm 0 W/m2
23:47 6.9 °C 4.6 °C 1031.7 hPa WNW 3.2 km/h 8 km/h 85 % 0 mm 0 W/m2
23:52 6.8 °C 4.4 °C 1031.7 hPa WNW 3.2 km/h 11.3 km/h 85 % 0 mm 0 W/m2
23:57 6.8 °C 4.4 °C 1031.7 hPa WNW 3.2 km/h 11.3 km/h 85 % 0 mm 0 W/m2
Delerius-Weather
Compliments of Weather Underground - 2.25 mb

Data updates at regular intervals.